sensor_id;sensor_type;location;lat;lon;timestamp;P1;durP1;ratioP1;P2;durP2;ratioP2
71626;SDS011;59475;52.464;13.590;2023-05-02T00:00:46;14.53;;;9.23;;
71626;SDS011;59475;52.464;13.590;2023-05-02T00:03:12;14.55;;;8.73;;
71626;SDS011;59475;52.464;13.590;2023-05-02T00:05:37;13.87;;;9.63;;
71626;SDS011;59475;52.464;13.590;2023-05-02T00:08:03;16.67;;;9.60;;
71626;SDS011;59475;52.464;13.590;2023-05-02T00:10:29;16.67;;;10.40;;
71626;SDS011;59475;52.464;13.590;2023-05-02T00:12:54;15.97;;;10.33;;
71626;SDS011;59475;52.464;13.590;2023-05-02T00:15:20;15.52;;;9.98;;
71626;SDS011;59475;52.464;13.590;2023-05-02T00:17:45;12.93;;;9.83;;
71626;SDS011;59475;52.464;13.590;2023-05-02T00:20:11;16.42;;;10.00;;
71626;SDS011;59475;52.464;13.590;2023-05-02T00:22:37;13.27;;;9.60;;
71626;SDS011;59475;52.464;13.590;2023-05-02T00:25:03;14.73;;;10.02;;
71626;SDS011;59475;52.464;13.590;2023-05-02T00:27:29;16.88;;;11.07;;
71626;SDS011;59475;52.464;13.590;2023-05-02T00:29:56;16.47;;;10.67;;
71626;SDS011;59475;52.464;13.590;2023-05-02T00:32:22;15.93;;;9.95;;
71626;SDS011;59475;52.464;13.590;2023-05-02T00:34:47;15.93;;;10.13;;
71626;SDS011;59475;52.464;13.590;2023-05-02T00:37:13;15.93;;;10.60;;
71626;SDS011;59475;52.464;13.590;2023-05-02T00:39:38;16.53;;;10.60;;
71626;SDS011;59475;52.464;13.590;2023-05-02T00:42:03;16.50;;;10.70;;
71626;SDS011;59475;52.464;13.590;2023-05-02T00:44:29;15.68;;;10.13;;
71626;SDS011;59475;52.464;13.590;2023-05-02T00:46:55;15.43;;;10.47;;
71626;SDS011;59475;52.464;13.590;2023-05-02T00:49:21;14.10;;;10.37;;
71626;SDS011;59475;52.464;13.590;2023-05-02T00:51:46;14.97;;;10.23;;
71626;SDS011;59475;52.464;13.590;2023-05-02T00:54:12;16.13;;;10.37;;
71626;SDS011;59475;52.464;13.590;2023-05-02T00:56:38;17.42;;;11.35;;
71626;SDS011;59475;52.464;13.590;2023-05-02T00:59:04;17.77;;;10.70;;
71626;SDS011;59475;52.464;13.590;2023-05-02T01:14:04;16.58;;;10.73;;
71626;SDS011;59475;52.464;13.590;2023-05-02T01:16:31;18.40;;;10.65;;
71626;SDS011;59475;52.464;13.590;2023-05-02T01:19:01;16.27;;;11.15;;
71626;SDS011;59475;52.464;13.590;2023-05-02T01:21:31;17.25;;;10.65;;
71626;SDS011;59475;52.464;13.590;2023-05-02T01:26:34;19.33;;;10.88;;
71626;SDS011;59475;52.464;13.590;2023-05-02T01:29:05;16.52;;;10.75;;
71626;SDS011;59475;52.464;13.590;2023-05-02T01:31:39;14.45;;;10.30;;
71626;SDS011;59475;52.464;13.590;2023-05-02T01:34:09;17.27;;;10.70;;
71626;SDS011;59475;52.464;13.590;2023-05-02T01:36:37;15.83;;;10.33;;
71626;SDS011;59475;52.464;13.590;2023-05-02T01:39:07;14.30;;;10.65;;
71626;SDS011;59475;52.464;13.590;2023-05-02T01:41:35;16.05;;;10.57;;
71626;SDS011;59475;52.464;13.590;2023-05-02T01:44:01;15.32;;;11.18;;
71626;SDS011;59475;52.464;13.590;2023-05-02T01:46:35;21.05;;;11.00;;
71626;SDS011;59475;52.464;13.590;2023-05-02T01:49:05;16.77;;;10.67;;
71626;SDS011;59475;52.464;13.590;2023-05-02T01:51:32;15.63;;;10.57;;
71626;SDS011;59475;52.464;13.590;2023-05-02T01:54:00;14.15;;;10.48;;
71626;SDS011;59475;52.464;13.590;2023-05-02T01:56:28;16.38;;;10.73;;
71626;SDS011;59475;52.464;13.590;2023-05-02T01:58:56;17.05;;;9.98;;
71626;SDS011;59475;52.464;13.590;2023-05-02T02:01:23;14.90;;;10.87;;
71626;SDS011;59475;52.464;13.590;2023-05-02T02:03:53;14.48;;;10.30;;
71626;SDS011;59475;52.464;13.590;2023-05-02T02:06:19;15.38;;;9.65;;
71626;SDS011;59475;52.464;13.590;2023-05-02T02:08:45;18.73;;;9.98;;
71626;SDS011;59475;52.464;13.590;2023-05-02T02:11:11;9.73;;;7.77;;
71626;SDS011;59475;52.464;13.590;2023-05-02T02:13:47;12.00;;;7.35;;
71626;SDS011;59475;52.464;13.590;2023-05-02T02:16:18;9.93;;;5.95;;
71626;SDS011;59475;52.464;13.590;2023-05-02T02:18:48;8.43;;;6.18;;
71626;SDS011;59475;52.464;13.590;2023-05-02T02:21:16;9.03;;;5.53;;
71626;SDS011;59475;52.464;13.590;2023-05-02T02:23:42;8.25;;;5.30;;
71626;SDS011;59475;52.464;13.590;2023-05-02T02:26:12;7.25;;;5.90;;
71626;SDS011;59475;52.464;13.590;2023-05-02T02:28:39;6.70;;;4.80;;
71626;SDS011;59475;52.464;13.590;2023-05-02T02:31:04;7.00;;;4.97;;
71626;SDS011;59475;52.464;13.590;2023-05-02T02:33:30;6.93;;;4.70;;
71626;SDS011;59475;52.464;13.590;2023-05-02T02:36:41;10.53;;;4.60;;
71626;SDS011;59475;52.464;13.590;2023-05-02T02:38:57;9.48;;;4.40;;
71626;SDS011;59475;52.464;13.590;2023-05-02T02:41:32;7.53;;;4.43;;
71626;SDS011;59475;52.464;13.590;2023-05-02T02:47:15;6.20;;;4.53;;
71626;SDS011;59475;52.464;13.590;2023-05-02T02:50:10;5.13;;;4.20;;
71626;SDS011;59475;52.464;13.590;2023-05-02T02:52:52;5.75;;;4.07;;
71626;SDS011;59475;52.464;13.590;2023-05-02T02:58:03;6.35;;;4.18;;
71626;SDS011;59475;52.464;13.590;2023-05-02T03:00:37;9.83;;;4.30;;
71626;SDS011;59475;52.464;13.590;2023-05-02T03:03:03;7.85;;;4.40;;
71626;SDS011;59475;52.464;13.590;2023-05-02T03:05:31;5.97;;;4.00;;
71626;SDS011;59475;52.464;13.590;2023-05-02T03:07:57;7.10;;;3.97;;
71626;SDS011;59475;52.464;13.590;2023-05-02T03:10:24;8.88;;;4.43;;
71626;SDS011;59475;52.464;13.590;2023-05-02T03:12:49;8.63;;;4.27;;
71626;SDS011;59475;52.464;13.590;2023-05-02T03:15:48;7.83;;;4.20;;
71626;SDS011;59475;52.464;13.590;2023-05-02T03:18:19;6.07;;;4.05;;
71626;SDS011;59475;52.464;13.590;2023-05-02T03:20:44;7.47;;;4.17;;
71626;SDS011;59475;52.464;13.590;2023-05-02T03:23:10;5.50;;;4.10;;
71626;SDS011;59475;52.464;13.590;2023-05-02T03:25:35;6.05;;;3.97;;
71626;SDS011;59475;52.464;13.590;2023-05-02T03:28:01;6.13;;;3.90;;
71626;SDS011;59475;52.464;13.590;2023-05-02T03:30:26;6.73;;;4.20;;
71626;SDS011;59475;52.464;13.590;2023-05-02T03:32:52;9.73;;;4.00;;
71626;SDS011;59475;52.464;13.590;2023-05-02T03:35:17;6.07;;;4.13;;
71626;SDS011;59475;52.464;13.590;2023-05-02T03:37:43;5.33;;;3.60;;
71626;SDS011;59475;52.464;13.590;2023-05-02T03:40:09;6.13;;;3.85;;
71626;SDS011;59475;52.464;13.590;2023-05-02T03:42:35;5.37;;;3.60;;
71626;SDS011;59475;52.464;13.590;2023-05-02T03:45:05;6.30;;;3.65;;
71626;SDS011;59475;52.464;13.590;2023-05-02T03:47:31;6.60;;;4.43;;
71626;SDS011;59475;52.464;13.590;2023-05-02T03:49:56;6.13;;;3.77;;
71626;SDS011;59475;52.464;13.590;2023-05-02T03:52:23;4.28;;;3.65;;
71626;SDS011;59475;52.464;13.590;2023-05-02T03:54:48;5.35;;;3.65;;
71626;SDS011;59475;52.464;13.590;2023-05-02T03:57:14;7.53;;;3.73;;
71626;SDS011;59475;52.464;13.590;2023-05-02T03:59:39;8.80;;;3.73;;
71626;SDS011;59475;52.464;13.590;2023-05-02T04:02:09;4.93;;;3.25;;
71626;SDS011;59475;52.464;13.590;2023-05-02T04:04:36;5.05;;;3.40;;
71626;SDS011;59475;52.464;13.590;2023-05-02T04:07:02;5.53;;;3.88;;
71626;SDS011;59475;52.464;13.590;2023-05-02T04:09:27;6.30;;;3.90;;
71626;SDS011;59475;52.464;13.590;2023-05-02T04:11:53;10.40;;;4.20;;
71626;SDS011;59475;52.464;13.590;2023-05-02T04:14:18;5.93;;;3.50;;
71626;SDS011;59475;52.464;13.590;2023-05-02T04:16:47;5.73;;;3.80;;
71626;SDS011;59475;52.464;13.590;2023-05-02T04:19:14;5.60;;;3.78;;
71626;SDS011;59475;52.464;13.590;2023-05-02T04:21:39;8.90;;;4.43;;
71626;SDS011;59475;52.464;13.590;2023-05-02T04:24:05;6.10;;;2.97;;
71626;SDS011;59475;52.464;13.590;2023-05-02T04:26:30;6.93;;;3.03;;
71626;SDS011;59475;52.464;13.590;2023-05-02T04:28:55;7.07;;;3.50;;
71626;SDS011;59475;52.464;13.590;2023-05-02T04:31:21;7.60;;;3.60;;
71626;SDS011;59475;52.464;13.590;2023-05-02T04:33:46;5.82;;;3.30;;
71626;SDS011;59475;52.464;13.590;2023-05-02T04:36:12;5.93;;;3.63;;
71626;SDS011;59475;52.464;13.590;2023-05-02T04:38:38;7.78;;;3.67;;
71626;SDS011;59475;52.464;13.590;2023-05-02T04:41:03;6.17;;;3.40;;
71626;SDS011;59475;52.464;13.590;2023-05-02T04:43:29;7.40;;;3.42;;
71626;SDS011;59475;52.464;13.590;2023-05-02T04:45:55;7.10;;;4.67;;
71626;SDS011;59475;52.464;13.590;2023-05-02T04:48:20;5.27;;;3.27;;
71626;SDS011;59475;52.464;13.590;2023-05-02T04:50:46;4.97;;;3.30;;
71626;SDS011;59475;52.464;13.590;2023-05-02T04:53:11;6.25;;;3.78;;
71626;SDS011;59475;52.464;13.590;2023-05-02T04:55:37;7.00;;;3.70;;
71626;SDS011;59475;52.464;13.590;2023-05-02T04:58:02;6.20;;;3.57;;
71626;SDS011;59475;52.464;13.590;2023-05-02T05:00:28;5.10;;;3.60;;
71626;SDS011;59475;52.464;13.590;2023-05-02T05:02:53;5.23;;;3.60;;
71626;SDS011;59475;52.464;13.590;2023-05-02T05:05:19;6.72;;;3.55;;
71626;SDS011;59475;52.464;13.590;2023-05-02T05:07:44;5.57;;;3.80;;
71626;SDS011;59475;52.464;13.590;2023-05-02T05:10:10;3.80;;;3.37;;
71626;SDS011;59475;52.464;13.590;2023-05-02T05:12:35;8.00;;;4.35;;
71626;SDS011;59475;52.464;13.590;2023-05-02T05:15:01;6.27;;;3.40;;
71626;SDS011;59475;52.464;13.590;2023-05-02T05:17:26;4.77;;;3.60;;
71626;SDS011;59475;52.464;13.590;2023-05-02T05:19:52;5.53;;;3.40;;
71626;SDS011;59475;52.464;13.590;2023-05-02T05:22:17;6.53;;;3.97;;
71626;SDS011;59475;52.464;13.590;2023-05-02T05:24:49;6.97;;;3.37;;
71626;SDS011;59475;52.464;13.590;2023-05-02T05:27:16;6.50;;;3.70;;
71626;SDS011;59475;52.464;13.590;2023-05-02T05:29:41;10.00;;;3.73;;
71626;SDS011;59475;52.464;13.590;2023-05-02T05:32:07;6.78;;;3.38;;
71626;SDS011;59475;52.464;13.590;2023-05-02T05:34:32;7.57;;;3.77;;
71626;SDS011;59475;52.464;13.590;2023-05-02T05:36:58;7.27;;;3.50;;
71626;SDS011;59475;52.464;13.590;2023-05-02T05:39:24;6.63;;;3.42;;
71626;SDS011;59475;52.464;13.590;2023-05-02T05:41:49;4.67;;;3.23;;
71626;SDS011;59475;52.464;13.590;2023-05-02T05:44:15;8.38;;;3.88;;
71626;SDS011;59475;52.464;13.590;2023-05-02T05:46:41;6.33;;;3.87;;
71626;SDS011;59475;52.464;13.590;2023-05-02T05:49:06;6.73;;;3.47;;
71626;SDS011;59475;52.464;13.590;2023-05-02T05:51:31;6.53;;;3.80;;
71626;SDS011;59475;52.464;13.590;2023-05-02T05:53:57;6.43;;;3.47;;
71626;SDS011;59475;52.464;13.590;2023-05-02T05:56:22;11.33;;;4.33;;
71626;SDS011;59475;52.464;13.590;2023-05-02T05:58:48;5.37;;;3.40;;
71626;SDS011;59475;52.464;13.590;2023-05-02T06:01:13;7.20;;;4.28;;
71626;SDS011;59475;52.464;13.590;2023-05-02T06:03:39;6.10;;;3.60;;
71626;SDS011;59475;52.464;13.590;2023-05-02T06:06:04;8.00;;;3.95;;
71626;SDS011;59475;52.464;13.590;2023-05-02T06:08:30;6.37;;;4.23;;
71626;SDS011;59475;52.464;13.590;2023-05-02T06:10:55;8.80;;;3.57;;
71626;SDS011;59475;52.464;13.590;2023-05-02T06:13:21;8.00;;;3.90;;
71626;SDS011;59475;52.464;13.590;2023-05-02T06:15:46;5.33;;;3.40;;
71626;SDS011;59475;52.464;13.590;2023-05-02T06:18:12;8.60;;;3.97;;
71626;SDS011;59475;52.464;13.590;2023-05-02T06:20:37;12.20;;;4.73;;
71626;SDS011;59475;52.464;13.590;2023-05-02T06:23:03;8.48;;;4.38;;
71626;SDS011;59475;52.464;13.590;2023-05-02T06:25:28;8.10;;;4.13;;
71626;SDS011;59475;52.464;13.590;2023-05-02T06:27:54;9.30;;;4.20;;
71626;SDS011;59475;52.464;13.590;2023-05-02T06:30:19;8.17;;;4.87;;
71626;SDS011;59475;52.464;13.590;2023-05-02T06:32:45;8.55;;;4.47;;
71626;SDS011;59475;52.464;13.590;2023-05-02T06:35:10;6.87;;;4.60;;
71626;SDS011;59475;52.464;13.590;2023-05-02T06:37:36;9.50;;;4.40;;
71626;SDS011;59475;52.464;13.590;2023-05-02T06:40:01;6.20;;;3.63;;
71626;SDS011;59475;52.464;13.590;2023-05-02T06:42:27;7.82;;;4.38;;
71626;SDS011;59475;52.464;13.590;2023-05-02T06:44:53;7.90;;;5.03;;
71626;SDS011;59475;52.464;13.590;2023-05-02T06:47:19;9.93;;;4.32;;
71626;SDS011;59475;52.464;13.590;2023-05-02T06:49:45;7.55;;;4.40;;
71626;SDS011;59475;52.464;13.590;2023-05-02T06:52:11;8.27;;;4.13;;
71626;SDS011;59475;52.464;13.590;2023-05-02T06:54:36;10.00;;;5.30;;
71626;SDS011;59475;52.464;13.590;2023-05-02T06:57:02;8.13;;;4.65;;
71626;SDS011;59475;52.464;13.590;2023-05-02T06:59:28;12.87;;;4.77;;
71626;SDS011;59475;52.464;13.590;2023-05-02T07:01:53;8.00;;;4.47;;
71626;SDS011;59475;52.464;13.590;2023-05-02T07:04:19;7.43;;;4.90;;
71626;SDS011;59475;52.464;13.590;2023-05-02T07:06:44;8.45;;;4.40;;
71626;SDS011;59475;52.464;13.590;2023-05-02T07:09:10;10.27;;;5.23;;
71626;SDS011;59475;52.464;13.590;2023-05-02T07:11:36;7.95;;;4.60;;
71626;SDS011;59475;52.464;13.590;2023-05-02T07:14:01;8.53;;;4.63;;
71626;SDS011;59475;52.464;13.590;2023-05-02T07:16:27;10.07;;;4.97;;
71626;SDS011;59475;52.464;13.590;2023-05-02T07:18:52;9.83;;;5.70;;
71626;SDS011;59475;52.464;13.590;2023-05-02T07:21:17;8.80;;;4.85;;
71626;SDS011;59475;52.464;13.590;2023-05-02T07:23:43;11.67;;;5.70;;
71626;SDS011;59475;52.464;13.590;2023-05-02T07:26:08;9.77;;;5.60;;
71626;SDS011;59475;52.464;13.590;2023-05-02T07:28:34;8.30;;;5.43;;
71626;SDS011;59475;52.464;13.590;2023-05-02T07:30:59;9.73;;;5.30;;
71626;SDS011;59475;52.464;13.590;2023-05-02T07:33:24;7.67;;;4.03;;
71626;SDS011;59475;52.464;13.590;2023-05-02T07:35:50;7.50;;;4.50;;
71626;SDS011;59475;52.464;13.590;2023-05-02T07:38:16;7.83;;;4.83;;
71626;SDS011;59475;52.464;13.590;2023-05-02T07:40:41;8.68;;;4.97;;
71626;SDS011;59475;52.464;13.590;2023-05-02T07:43:07;8.90;;;4.67;;
71626;SDS011;59475;52.464;13.590;2023-05-02T07:45:33;10.23;;;5.32;;
71626;SDS011;59475;52.464;13.590;2023-05-02T07:47:59;8.02;;;4.55;;
71626;SDS011;59475;52.464;13.590;2023-05-02T07:50:24;10.70;;;5.00;;
71626;SDS011;59475;52.464;13.590;2023-05-02T07:52:51;7.57;;;4.40;;
71626;SDS011;59475;52.464;13.590;2023-05-02T07:55:16;6.13;;;4.27;;
71626;SDS011;59475;52.464;13.590;2023-05-02T07:57:44;6.00;;;3.95;;
71626;SDS011;59475;52.464;13.590;2023-05-02T08:00:09;8.13;;;4.97;;
71626;SDS011;59475;52.464;13.590;2023-05-02T08:02:35;8.30;;;5.10;;
71626;SDS011;59475;52.464;13.590;2023-05-02T08:05:02;7.10;;;4.00;;
71626;SDS011;59475;52.464;13.590;2023-05-02T08:07:28;9.88;;;5.15;;
71626;SDS011;59475;52.464;13.590;2023-05-02T08:09:53;7.13;;;5.03;;
71626;SDS011;59475;52.464;13.590;2023-05-02T08:12:19;7.33;;;4.63;;
71626;SDS011;59475;52.464;13.590;2023-05-02T08:14:44;7.75;;;4.53;;
71626;SDS011;59475;52.464;13.590;2023-05-02T08:17:10;6.80;;;4.47;;
71626;SDS011;59475;52.464;13.590;2023-05-02T08:19:36;8.38;;;4.95;;
71626;SDS011;59475;52.464;13.590;2023-05-02T08:22:01;8.33;;;4.30;;
71626;SDS011;59475;52.464;13.590;2023-05-02T08:24:26;6.80;;;4.93;;
71626;SDS011;59475;52.464;13.590;2023-05-02T08:26:52;6.83;;;4.43;;
71626;SDS011;59475;52.464;13.590;2023-05-02T08:29:17;6.20;;;4.37;;
71626;SDS011;59475;52.464;13.590;2023-05-02T08:31:42;7.15;;;4.50;;
71626;SDS011;59475;52.464;13.590;2023-05-02T08:34:08;5.47;;;4.00;;
71626;SDS011;59475;52.464;13.590;2023-05-02T08:36:33;7.17;;;4.57;;
71626;SDS011;59475;52.464;13.590;2023-05-02T08:38:59;7.22;;;5.15;;
71626;SDS011;59475;52.464;13.590;2023-05-02T08:41:24;5.57;;;3.77;;
71626;SDS011;59475;52.464;13.590;2023-05-02T08:43:53;7.13;;;4.07;;
71626;SDS011;59475;52.464;13.590;2023-05-02T08:46:20;6.87;;;4.87;;
71626;SDS011;59475;52.464;13.590;2023-05-02T08:48:47;6.00;;;4.15;;
71626;SDS011;59475;52.464;13.590;2023-05-02T08:51:15;7.85;;;4.50;;
71626;SDS011;59475;52.464;13.590;2023-05-02T08:53:42;7.47;;;4.63;;
71626;SDS011;59475;52.464;13.590;2023-05-02T08:56:08;4.57;;;3.58;;
71626;SDS011;59475;52.464;13.590;2023-05-02T08:58:35;5.57;;;3.33;;
71626;SDS011;59475;52.464;13.590;2023-05-02T09:01:03;6.85;;;3.72;;
71626;SDS011;59475;52.464;13.590;2023-05-02T09:03:44;7.00;;;3.92;;
71626;SDS011;59475;52.464;13.590;2023-05-02T09:06:28;7.57;;;4.45;;
71626;SDS011;59475;52.464;13.590;2023-05-02T09:08:53;5.88;;;3.47;;
71626;SDS011;59475;52.464;13.590;2023-05-02T09:11:19;6.33;;;4.17;;
71626;SDS011;59475;52.464;13.590;2023-05-02T09:13:46;6.35;;;3.83;;
71626;SDS011;59475;52.464;13.590;2023-05-02T09:18:39;5.60;;;3.90;;
71626;SDS011;59475;52.464;13.590;2023-05-02T09:21:08;5.75;;;3.67;;
71626;SDS011;59475;52.464;13.590;2023-05-02T09:23:36;6.55;;;3.58;;
71626;SDS011;59475;52.464;13.590;2023-05-02T09:26:10;6.50;;;3.28;;
71626;SDS011;59475;52.464;13.590;2023-05-02T09:31:09;5.10;;;2.67;;
71626;SDS011;59475;52.464;13.590;2023-05-02T09:33:36;5.32;;;2.83;;
71626;SDS011;59475;52.464;13.590;2023-05-02T09:36:03;7.57;;;2.72;;
71626;SDS011;59475;52.464;13.590;2023-05-02T09:38:31;3.85;;;2.70;;
71626;SDS011;59475;52.464;13.590;2023-05-02T09:40:56;5.07;;;2.90;;
71626;SDS011;59475;52.464;13.590;2023-05-02T09:43:23;4.35;;;2.80;;
71626;SDS011;59475;52.464;13.590;2023-05-02T09:45:55;4.20;;;2.80;;
71626;SDS011;59475;52.464;13.590;2023-05-02T09:48:22;6.18;;;2.97;;
71626;SDS011;59475;52.464;13.590;2023-05-02T09:50:48;5.57;;;2.80;;
71626;SDS011;59475;52.464;13.590;2023-05-02T09:53:14;5.03;;;3.20;;
71626;SDS011;59475;52.464;13.590;2023-05-02T09:55:39;5.70;;;2.80;;
71626;SDS011;59475;52.464;13.590;2023-05-02T09:58:05;5.63;;;2.72;;
71626;SDS011;59475;52.464;13.590;2023-05-02T10:00:40;3.63;;;2.57;;
71626;SDS011;59475;52.464;13.590;2023-05-02T10:03:07;5.78;;;3.10;;
71626;SDS011;59475;52.464;13.590;2023-05-02T10:05:37;3.80;;;2.40;;
71626;SDS011;59475;52.464;13.590;2023-05-02T10:08:06;4.30;;;2.50;;
71626;SDS011;59475;52.464;13.590;2023-05-02T10:10:37;5.90;;;2.53;;
71626;SDS011;59475;52.464;13.590;2023-05-02T10:13:08;3.30;;;2.65;;
71626;SDS011;59475;52.464;13.590;2023-05-02T10:15:41;4.65;;;2.97;;
71626;SDS011;59475;52.464;13.590;2023-05-02T10:18:11;5.83;;;3.40;;
71626;SDS011;59475;52.464;13.590;2023-05-02T10:20:47;4.57;;;2.83;;
71626;SDS011;59475;52.464;13.590;2023-05-02T10:23:19;5.32;;;3.30;;
71626;SDS011;59475;52.464;13.590;2023-05-02T10:25:46;4.95;;;2.78;;
71626;SDS011;59475;52.464;13.590;2023-05-02T10:28:12;5.35;;;2.95;;
71626;SDS011;59475;52.464;13.590;2023-05-02T10:30:38;5.60;;;2.40;;
71626;SDS011;59475;52.464;13.590;2023-05-02T10:33:05;3.53;;;2.53;;
71626;SDS011;59475;52.464;13.590;2023-05-02T10:35:30;4.53;;;2.50;;
71626;SDS011;59475;52.464;13.590;2023-05-02T10:37:56;4.68;;;3.13;;
71626;SDS011;59475;52.464;13.590;2023-05-02T10:40:24;4.90;;;3.00;;
71626;SDS011;59475;52.464;13.590;2023-05-02T10:42:50;6.43;;;2.57;;
71626;SDS011;59475;52.464;13.590;2023-05-02T10:45:32;6.32;;;2.90;;
71626;SDS011;59475;52.464;13.590;2023-05-02T10:48:15;5.57;;;2.85;;
71626;SDS011;59475;52.464;13.590;2023-05-02T10:50:47;3.53;;;2.70;;
71626;SDS011;59475;52.464;13.590;2023-05-02T10:53:23;5.07;;;2.40;;
71626;SDS011;59475;52.464;13.590;2023-05-02T10:56:10;3.93;;;2.43;;
71626;SDS011;59475;52.464;13.590;2023-05-02T10:58:39;5.13;;;2.05;;
71626;SDS011;59475;52.464;13.590;2023-05-02T11:04:05;5.93;;;2.78;;
71626;SDS011;59475;52.464;13.590;2023-05-02T11:06:33;3.90;;;2.75;;
71626;SDS011;59475;52.464;13.590;2023-05-02T11:14:06;5.25;;;2.60;;
71626;SDS011;59475;52.464;13.590;2023-05-02T11:19:25;7.20;;;2.17;;
71626;SDS011;59475;52.464;13.590;2023-05-02T11:21:52;6.53;;;2.40;;
71626;SDS011;59475;52.464;13.590;2023-05-02T11:24:48;4.95;;;2.28;;
71626;SDS011;59475;52.464;13.590;2023-05-02T11:32:25;3.95;;;2.55;;
71626;SDS011;59475;52.464;13.590;2023-05-02T11:35:27;6.20;;;3.20;;
71626;SDS011;59475;52.464;13.590;2023-05-02T11:37:57;8.02;;;3.20;;
71626;SDS011;59475;52.464;13.590;2023-05-02T11:40:29;6.22;;;3.35;;
71626;SDS011;59475;52.464;13.590;2023-05-02T11:42:56;5.43;;;3.33;;
71626;SDS011;59475;52.464;13.590;2023-05-02T11:45:32;6.35;;;4.13;;
71626;SDS011;59475;52.464;13.590;2023-05-02T11:48:01;8.88;;;4.70;;
71626;SDS011;59475;52.464;13.590;2023-05-02T11:50:28;8.85;;;4.45;;
71626;SDS011;59475;52.464;13.590;2023-05-02T11:52:54;11.07;;;4.40;;
71626;SDS011;59475;52.464;13.590;2023-05-02T11:55:20;10.13;;;4.73;;
71626;SDS011;59475;52.464;13.590;2023-05-02T11:57:45;9.80;;;4.47;;
71626;SDS011;59475;52.464;13.590;2023-05-02T12:00:11;10.35;;;4.68;;
71626;SDS011;59475;52.464;13.590;2023-05-02T12:02:37;13.00;;;4.37;;
71626;SDS011;59475;52.464;13.590;2023-05-02T12:05:05;8.88;;;4.25;;
71626;SDS011;59475;52.464;13.590;2023-05-02T12:07:37;7.75;;;3.67;;
71626;SDS011;59475;52.464;13.590;2023-05-02T12:10:08;11.93;;;4.10;;
71626;SDS011;59475;52.464;13.590;2023-05-02T12:12:35;8.13;;;3.25;;
71626;SDS011;59475;52.464;13.590;2023-05-02T12:15:04;8.20;;;3.90;;
71626;SDS011;59475;52.464;13.590;2023-05-02T12:17:31;7.85;;;3.85;;
71626;SDS011;59475;52.464;13.590;2023-05-02T12:19:58;11.95;;;3.40;;
71626;SDS011;59475;52.464;13.590;2023-05-02T12:22:24;6.80;;;3.08;;
71626;SDS011;59475;52.464;13.590;2023-05-02T12:24:50;6.40;;;3.00;;
71626;SDS011;59475;52.464;13.590;2023-05-02T12:27:17;3.08;;;2.13;;
71626;SDS011;59475;52.464;13.590;2023-05-02T12:29:47;4.63;;;2.28;;
71626;SDS011;59475;52.464;13.590;2023-05-02T12:32:13;5.60;;;2.65;;
71626;SDS011;59475;52.464;13.590;2023-05-02T12:34:40;6.60;;;2.58;;
71626;SDS011;59475;52.464;13.590;2023-05-02T12:37:06;5.87;;;1.97;;
71626;SDS011;59475;52.464;13.590;2023-05-02T12:39:41;6.35;;;2.42;;
71626;SDS011;59475;52.464;13.590;2023-05-02T12:42:08;7.53;;;2.20;;
71626;SDS011;59475;52.464;13.590;2023-05-02T12:44:35;6.50;;;2.63;;
71626;SDS011;59475;52.464;13.590;2023-05-02T12:47:01;5.50;;;2.20;;
71626;SDS011;59475;52.464;13.590;2023-05-02T12:49:26;6.10;;;2.50;;
71626;SDS011;59475;52.464;13.590;2023-05-02T12:51:52;6.90;;;2.50;;
71626;SDS011;59475;52.464;13.590;2023-05-02T12:54:20;6.10;;;2.60;;
71626;SDS011;59475;52.464;13.590;2023-05-02T12:56:45;4.90;;;2.67;;
71626;SDS011;59475;52.464;13.590;2023-05-02T12:59:24;9.37;;;2.90;;
71626;SDS011;59475;52.464;13.590;2023-05-02T13:01:50;5.28;;;2.60;;
71626;SDS011;59475;52.464;13.590;2023-05-02T13:04:15;11.20;;;2.30;;
71626;SDS011;59475;52.464;13.590;2023-05-02T13:06:41;6.10;;;2.30;;
71626;SDS011;59475;52.464;13.590;2023-05-02T13:09:06;8.43;;;3.17;;
71626;SDS011;59475;52.464;13.590;2023-05-02T13:11:31;7.53;;;2.30;;
71626;SDS011;59475;52.464;13.590;2023-05-02T13:13:57;6.17;;;2.97;;
71626;SDS011;59475;52.464;13.590;2023-05-02T13:16:25;6.35;;;2.53;;
71626;SDS011;59475;52.464;13.590;2023-05-02T13:18:50;7.87;;;2.50;;
71626;SDS011;59475;52.464;13.590;2023-05-02T13:21:16;8.13;;;2.90;;
71626;SDS011;59475;52.464;13.590;2023-05-02T13:23:41;4.47;;;2.50;;
71626;SDS011;59475;52.464;13.590;2023-05-02T13:26:08;7.77;;;3.27;;
71626;SDS011;59475;52.464;13.590;2023-05-02T13:28:33;9.60;;;3.08;;
71626;SDS011;59475;52.464;13.590;2023-05-02T13:31:01;10.32;;;3.15;;
71626;SDS011;59475;52.464;13.590;2023-05-02T13:33:26;11.53;;;2.90;;
71626;SDS011;59475;52.464;13.590;2023-05-02T13:35:52;8.47;;;2.90;;
71626;SDS011;59475;52.464;13.590;2023-05-02T13:38:17;9.00;;;3.73;;
71626;SDS011;59475;52.464;13.590;2023-05-02T13:40:42;10.10;;;3.50;;
71626;SDS011;59475;52.464;13.590;2023-05-02T13:43:08;11.48;;;2.50;;
71626;SDS011;59475;52.464;13.590;2023-05-02T13:45:33;8.73;;;3.63;;
71626;SDS011;59475;52.464;13.590;2023-05-02T13:47:59;6.60;;;3.43;;
71626;SDS011;59475;52.464;13.590;2023-05-02T13:50:24;8.20;;;3.72;;
71626;SDS011;59475;52.464;13.590;2023-05-02T13:52:50;8.00;;;2.80;;
71626;SDS011;59475;52.464;13.590;2023-05-02T13:55:15;7.83;;;2.67;;
71626;SDS011;59475;52.464;13.590;2023-05-02T13:57:41;6.50;;;3.07;;
71626;SDS011;59475;52.464;13.590;2023-05-02T14:00:06;7.13;;;2.58;;
71626;SDS011;59475;52.464;13.590;2023-05-02T14:02:33;7.75;;;3.20;;
71626;SDS011;59475;52.464;13.590;2023-05-02T14:04:59;7.30;;;2.90;;
71626;SDS011;59475;52.464;13.590;2023-05-02T14:07:25;8.10;;;3.07;;
71626;SDS011;59475;52.464;13.590;2023-05-02T14:09:50;7.55;;;3.10;;
71626;SDS011;59475;52.464;13.590;2023-05-02T14:12:15;6.83;;;2.70;;
71626;SDS011;59475;52.464;13.590;2023-05-02T14:14:41;8.20;;;2.80;;
71626;SDS011;59475;52.464;13.590;2023-05-02T14:17:06;7.53;;;2.57;;
71626;SDS011;59475;52.464;13.590;2023-05-02T14:19:31;6.23;;;3.10;;
71626;SDS011;59475;52.464;13.590;2023-05-02T14:21:57;5.65;;;3.00;;
71626;SDS011;59475;52.464;13.590;2023-05-02T14:24:23;7.40;;;2.70;;
71626;SDS011;59475;52.464;13.590;2023-05-02T14:26:48;5.20;;;3.27;;
71626;SDS011;59475;52.464;13.590;2023-05-02T14:29:13;11.73;;;3.10;;
71626;SDS011;59475;52.464;13.590;2023-05-02T14:31:39;7.75;;;3.00;;
71626;SDS011;59475;52.464;13.590;2023-05-02T14:34:04;8.77;;;2.43;;
71626;SDS011;59475;52.464;13.590;2023-05-02T14:36:30;5.83;;;3.13;;
71626;SDS011;59475;52.464;13.590;2023-05-02T14:38:56;6.38;;;3.35;;
71626;SDS011;59475;52.464;13.590;2023-05-02T14:41:21;8.03;;;2.90;;
71626;SDS011;59475;52.464;13.590;2023-05-02T14:43:48;7.03;;;3.20;;
71626;SDS011;59475;52.464;13.590;2023-05-02T14:46:15;6.35;;;2.90;;
71626;SDS011;59475;52.464;13.590;2023-05-02T14:48:40;8.50;;;3.17;;
71626;SDS011;59475;52.464;13.590;2023-05-02T14:51:06;10.03;;;3.00;;
71626;SDS011;59475;52.464;13.590;2023-05-02T14:53:31;8.77;;;3.00;;
71626;SDS011;59475;52.464;13.590;2023-05-02T14:55:56;8.27;;;2.97;;
71626;SDS011;59475;52.464;13.590;2023-05-02T14:58:22;8.20;;;3.20;;
71626;SDS011;59475;52.464;13.590;2023-05-02T15:00:47;8.47;;;2.80;;
71626;SDS011;59475;52.464;13.590;2023-05-02T15:03:13;6.53;;;2.63;;
71626;SDS011;59475;52.464;13.590;2023-05-02T15:05:38;3.65;;;2.22;;
71626;SDS011;59475;52.464;13.590;2023-05-02T15:08:04;6.07;;;2.70;;
71626;SDS011;59475;52.464;13.590;2023-05-02T15:10:29;8.68;;;3.05;;
71626;SDS011;59475;52.464;13.590;2023-05-02T15:12:55;4.90;;;2.27;;